Time;durP1;ratioP1;P1;durP2;ratioP2;P2;SDS_P1;SDS_P2;PMS_P1;PMS_P2;Temp;Humidity;BMP_temperature;BMP_pressure;BME280_temperature;BME280_humidity;BME280_pressure;Samples;Min_cycle;Max_cycle;Signal;HPM_P1;HPM_P2
2022/02/17 00:02:15;;;;;;;;;;;;;;;;;;5043076;28;19925;-60
2022/02/17 00:04:40;;;;;;;;;;;;;;;;;;5043653;28;20254;-60
2022/02/17 00:07:06;;;;;;;;;;;;;;;;;;5025612;28;19931;-60
2022/02/17 00:09:32;;;;;;;;;;;;;;;;;;5045293;28;19933;-60
2022/02/17 00:11:57;;;;;;;;;;;;;;;;;;5045361;28;19967;-58
2022/02/17 00:14:23;;;;;;;;;;;;;;;;;;5045151;28;19921;-60
2022/02/17 00:16:52;;;;;;;;;;;;;;;;;;5046822;28;19929;-59
2022/02/17 00:19:17;;;;;;;;;;;;;;;;;;5045891;28;20519;-59
2022/02/17 00:21:43;;;;;;;;;;;;;;;;;;5050178;28;19920;-59
2022/02/17 00:24:11;;;;;;;;;;;;;;;;;;5049893;28;19933;-60
2022/02/17 00:26:36;;;;;;;;;;;;;;;;;;5048963;28;19925;-59
2022/02/17 00:29:02;;;;;;;;;;;;;;;;;;5049922;28;20397;-60
2022/02/17 00:31:27;;;;;;;;;;;;;;;;;;5039830;28;20416;-60
2022/02/17 00:33:53;;;;;;;;;;;;;;;;;;5049921;28;19997;-60
2022/02/17 00:36:18;;;;;;;;;;;;;;;;;;5048299;28;19971;-62
2022/02/17 00:38:45;;;;;;;;;;;;;;;;;;5050270;28;19924;-61
2022/02/17 00:41:11;;;;;;;;;;;;;;;;;;5051170;28;19963;-60
2022/02/17 00:43:36;;;;;;;;;;;;;;;;;;5052418;28;20132;-61
2022/02/17 00:46:01;;;;;;;;;;;;;;;;;;5050608;28;19932;-61
2022/02/17 00:48:27;;;;;;;;;;;;;;;;;;5029583;28;19924;-59
2022/02/17 00:50:53;;;;;;;;;;;;;;;;;;5050318;28;20204;-61
2022/02/17 00:53:18;;;;;;;;;;;;;;;;;;5050339;28;19959;-62
2022/02/17 00:55:44;;;;;;;;;;;;;;;;;;5050820;28;19928;-60
2022/02/17 00:58:09;;;;;;;;;;;;;;;;;;5051653;28;20059;-60
2022/02/17 01:00:34;;;;;;;;;;;;;;;;;;5045945;28;19925;-59
2022/02/17 01:03:00;;;;;;;;;;;;;;;;;;5049340;28;20015;-60
2022/02/17 01:05:26;;;;;;;;;;;;;;;;;;5049387;28;20412;-60
2022/02/17 01:07:51;;;;;;;;;;;;;;;;;;5050397;28;20431;-61
2022/02/17 01:10:17;;;;;;;;;;;;;;;;;;5048967;28;19994;-61
2022/02/17 01:12:42;;;;;;;;;;;;;;;;;;5046698;28;20020;-62
2022/02/17 01:15:07;;;;;;;;;;;;;;;;;;5047421;28;20408;-60
2022/02/17 01:17:33;;;;;;;;;;;;;;;;;;5047387;28;20435;-60
2022/02/17 01:19:58;;;;;;;;;;;;;;;;;;5040382;28;19976;-59
2022/02/17 01:22:24;;;;;;;;;;;;;;;;;;5046298;28;19944;-59
2022/02/17 01:24:49;;;;;;;;;;;;;;;;;;5049618;28;20460;-60
2022/02/17 01:27:15;;;;;;;;;;;;;;;;;;5048532;28;19921;-61
2022/02/17 01:29:40;;;;;;;;;;;;;;;;;;5048078;28;20010;-59
2022/02/17 01:32:06;;;;;;;;;;;;;;;;;;5031317;28;19925;-62
2022/02/17 01:34:31;;;;;;;;;;;;;;;;;;5047230;28;19969;-60
2022/02/17 01:36:57;;;;;;;;;;;;;;;;;;5048255;28;19932;-59
2022/02/17 01:39:23;;;;;;;;;;;;;;;;;;5046617;28;20309;-60
2022/02/17 01:41:49;;;;;;;;;;;;;;;;;;5030417;28;19940;-60
2022/02/17 01:44:14;;;;;;;;;;;;;;;;;;5049383;28;19920;-60
2022/02/17 01:46:40;;;;;;;;;;;;;;;;;;5048706;28;19925;-60
2022/02/17 01:49:05;;;;;;;;;;;;;;;;;;5049035;28;19928;-60
2022/02/17 01:51:31;;;;;;;;;;;;;;;;;;5048136;28;19920;-61
2022/02/17 01:53:57;;;;;;;;;;;;;;;;;;5030725;28;19982;-61
2022/02/17 01:56:22;;;;;;;;;;;;;;;;;;5031397;28;19971;-61
2022/02/17 01:58:47;;;;;;;;;;;;;;;;;;5047016;28;19925;-61
2022/02/17 02:01:13;;;;;;;;;;;;;;;;;;5048396;28;19928;-61
2022/02/17 02:03:38;;;;;;;;;;;;;;;;;;5047879;28;19956;-61
2022/02/17 02:06:04;;;;;;;;;;;;;;;;;;5048428;28;20289;-61
2022/02/17 02:08:29;;;;;;;;;;;;;;;;;;5049062;28;19924;-62
2022/02/17 02:10:55;;;;;;;;;;;;;;;;;;5051538;28;19925;-62
2022/02/17 02:13:20;;;;;;;;;;;;;;;;;;5035602;28;19928;-61
2022/02/17 02:15:46;;;;;;;;;;;;;;;;;;5049726;28;19921;-61
2022/02/17 02:18:11;;;;;;;;;;;;;;;;;;5030484;28;19925;-61
2022/02/17 02:20:37;;;;;;;;;;;;;;;;;;5029273;28;20783;-61
2022/02/17 02:23:02;;;;;;;;;;;;;;;;;;5049637;28;19921;-61
2022/02/17 02:25:28;;;;;;;;;;;;;;;;;;5048061;28;19928;-61
2022/02/17 02:27:55;;;;;;;;;;;;;;;;;;5048681;28;20031;-61
2022/02/17 02:30:21;;;;;;;;;;;;;;;;;;5047355;28;20499;-60
2022/02/17 02:32:46;;;;;;;;;;;;;;;;;;5044511;28;19935;-61
2022/02/17 02:35:12;;;;;;;;;;;;;;;;;;5047657;28;19970;-61
2022/02/17 02:37:37;;;;;;;;;;;;;;;;;;5029767;28;19943;-59
2022/02/17 02:40:05;;;;;;;;;;;;;;;;;;5047267;28;19982;-61
2022/02/17 02:42:31;;;;;;;;;;;;;;;;;;5025992;28;19925;-61
2022/02/17 02:44:56;;;;;;;;;;;;;;;;;;5047213;28;19967;-61
2022/02/17 02:47:22;;;;;;;;;;;;;;;;;;5047203;28;20009;-63
2022/02/17 02:49:47;;;;;;;;;;;;;;;;;;5047173;28;20321;-63
2022/02/17 02:52:13;;;;;;;;;;;;;;;;;;5047520;28;20391;-60
2022/02/17 02:54:38;;;;;;;;;;;;;;;;;;5047013;28;20499;-61
2022/02/17 02:57:04;;;;;;;;;;;;;;;;;;5047816;28;20396;-61
2022/02/17 02:59:29;;;;;;;;;;;;;;;;;;5048258;28;19924;-61
2022/02/17 03:01:55;;;;;;;;;;;;;;;;;;5047191;28;19927;-63
2022/02/17 03:04:20;;;;;;;;;;;;;;;;;;5045283;28;19932;-62
2022/02/17 03:06:46;;;;;;;;;;;;;;;;;;5028507;28;20366;-61
2022/02/17 03:09:11;;;;;;;;;;;;;;;;;;5046349;28;19979;-61
2022/02/17 03:11:37;;;;;;;;;;;;;;;;;;5044217;28;20351;-62
2022/02/17 03:14:03;;;;;;;;;;;;;;;;;;5045319;28;19932;-61
2022/02/17 03:16:28;;;;;;;;;;;;;;;;;;5025621;28;20289;-62
2022/02/17 03:18:54;;;;;;;;;;;;;;;;;;5045044;28;19924;-61
2022/02/17 03:21:20;;;;;;;;;;;;;;;;;;5044924;28;20333;-62
2022/02/17 03:23:46;;;;;;;;;;;;;;;;;;5044688;28;19964;-63
2022/02/17 03:26:11;;;;;;;;;;;;;;;;;;5044322;28;20012;-60
2022/02/17 03:28:37;;;;;;;;;;;;;;;;;;5028259;28;20514;-63
2022/02/17 03:31:05;;;;;;;;;;;;;;;;;;5043824;28;20197;-62
2022/02/17 03:33:31;;;;;;;;;;;;;;;;;;5044348;28;19931;-62
2022/02/17 03:35:56;;;;;;;;;;;;;;;;;;5047318;28;19928;-61
2022/02/17 03:38:22;;;;;;;;;;;;;;;;;;5046591;28;19924;-62
2022/02/17 03:40:47;;;;;;;;;;;;;;;;;;5044680;28;20020;-63
2022/02/17 03:43:13;;;;;;;;;;;;;;;;;;5047931;28;19920;-62
2022/02/17 03:45:38;;;;;;;;;;;;;;;;;;5041893;28;19921;-63
2022/02/17 03:48:04;;;;;;;;;;;;;;;;;;5047031;28;19960;-62
2022/02/17 03:50:29;;;;;;;;;;;;;;;;;;5045922;28;20007;-62
2022/02/17 03:52:55;;;;;;;;;;;;;;;;;;5045850;28;19920;-62
2022/02/17 03:55:20;;;;;;;;;;;;;;;;;;5045223;28;19935;-62
2022/02/17 03:57:46;;;;;;;;;;;;;;;;;;5046652;28;19925;-61
2022/02/17 04:00:11;;;;;;;;;;;;;;;;;;5044382;28;19947;-62
2022/02/17 04:02:37;;;;;;;;;;;;;;;;;;5026884;28;20631;-61
2022/02/17 04:05:02;;;;;;;;;;;;;;;;;;5027444;28;19935;-61
2022/02/17 04:07:28;;;;;;;;;;;;;;;;;;5045770;28;19925;-63
2022/02/17 04:09:53;;;;;;;;;;;;;;;;;;5045564;28;20280;-63
2022/02/17 04:12:19;;;;;;;;;;;;;;;;;;5045495;28;20325;-62
2022/02/17 04:14:44;;;;;;;;;;;;;;;;;;5029360;28;19939;-63
2022/02/17 04:17:13;;;;;;;;;;;;;;;;;;5047102;28;19952;-62
2022/02/17 04:19:38;;;;;;;;;;;;;;;;;;5045517;28;20315;-64
2022/02/17 04:22:04;;;;;;;;;;;;;;;;;;5044322;28;19932;-62
2022/02/17 04:24:30;;;;;;;;;;;;;;;;;;5043754;28;19935;-63
2022/02/17 04:26:55;;;;;;;;;;;;;;;;;;5046468;28;19975;-62
2022/02/17 04:29:20;;;;;;;;;;;;;;;;;;5044238;28;19933;-61
2022/02/17 04:31:46;;;;;;;;;;;;;;;;;;5044887;28;19924;-62
2022/02/17 04:34:11;;;;;;;;;;;;;;;;;;5048068;28;20035;-62
2022/02/17 04:36:37;;;;;;;;;;;;;;;;;;5046841;28;21165;-61
2022/02/17 04:39:02;;;;;;;;;;;;;;;;;;5038154;28;20399;-62
2022/02/17 04:44:12;;;;;;;;;;;;;;;;;;5045838;28;19932;-60
2022/02/17 04:46:40;;;;;;;;;;;;;;;;;;5043256;28;19924;-60
2022/02/17 04:49:06;;;;;;;;;;;;;;;;;;5049482;28;19924;-60
2022/02/17 04:51:31;;;;;;;;;;;;;;;;;;5047227;28;19986;-60
2022/02/17 04:53:57;;;;;;;;;;;;;;;;;;5045579;28;19956;-60
2022/02/17 04:56:22;;;;;;;;;;;;;;;;;;5045934;28;19928;-60
2022/02/17 04:58:47;;;;;;;;;;;;;;;;;;5046172;28;19924;-59
2022/02/17 05:01:13;;;;;;;;;;;;;;;;;;5044669;28;19974;-58
2022/02/17 05:03:38;;;;;;;;;;;;;;;;;;5044319;28;19983;-60
2022/02/17 05:06:04;;;;;;;;;;;;;;;;;;5046256;28;20396;-58
2022/02/17 05:08:32;;;;;;;;;;;;;;;;;;5048853;28;19976;-59
2022/02/17 05:10:57;;;;;;;;;;;;;;;;;;5049171;28;19978;-58
2022/02/17 05:13:23;;;;;;;;;;;;;;;;;;5049755;28;19921;-58
2022/02/17 05:15:48;;;;;;;;;;;;;;;;;;5049801;28;19925;-58
2022/02/17 05:18:14;;;;;;;;;;;;;;;;;;5049523;28;20320;-58
2022/02/17 05:20:39;;;;;;;;;;;;;;;;;;5048724;28;20190;-58
2022/02/17 05:23:05;;;;;;;;;;;;;;;;;;5047478;28;19932;-58
2022/02/17 05:30:58;;;;;;;;;;;;;;;;;;5047937;28;19939;-57
2022/02/17 05:33:24;;;;;;;;;;;;;;;;;;5049014;28;19920;-58
2022/02/17 05:35:49;;;;;;;;;;;;;;;;;;5044125;28;20567;-58
2022/02/17 05:38:15;;;;;;;;;;;;;;;;;;5061630;28;19921;-59
2022/02/17 05:40:40;;;;;;;;;;;;;;;;;;5046839;28;19942;-58
2022/02/17 05:43:06;;;;;;;;;;;;;;;;;;5051681;28;19916;-57
2022/02/17 05:45:31;;;;;;;;;;;;;;;;;;5048351;28;19925;-58
2022/02/17 05:47:57;;;;;;;;;;;;;;;;;;5029255;28;19988;-58
2022/02/17 05:50:22;;;;;;;;;;;;;;;;;;5046065;28;20351;-58
2022/02/17 05:52:48;;;;;;;;;;;;;;;;;;5046944;28;20007;-59
2022/02/17 05:55:14;;;;;;;;;;;;;;;;;;5048718;28;20281;-59
2022/02/17 05:57:41;;;;;;;;;;;;;;;;;;5048902;28;19920;-58
2022/02/17 06:00:07;;;;;;;;;;;;;;;;;;5048032;28;19920;-58
2022/02/17 06:02:32;;;;;;;;;;;;;;;;;;5045339;28;20558;-58
2022/02/17 06:04:57;;;;;;;;;;;;;;;;;;5048147;28;19924;-59
2022/02/17 06:07:23;;;;;;;;;;;;;;;;;;5048027;28;19925;-59
2022/02/17 06:09:48;;;;;;;;;;;;;;;;;;5047346;28;19929;-59
2022/02/17 06:12:16;;;;;;;;;;;;;;;;;;5047056;28;20279;-59
2022/02/17 06:14:42;;;;;;;;;;;;;;;;;;5047276;28;19978;-59
2022/02/17 06:17:07;;;;;;;;;;;;;;;;;;5047543;28;20565;-59
2022/02/17 06:19:33;;;;;;;;;;;;;;;;;;5045191;28;21816;-59
2022/02/17 06:21:58;;;;;;;;;;;;;;;;;;5046974;27;19925;-59
2022/02/17 06:24:24;;;;;;;;;;;;;;;;;;5047302;28;19929;-59
2022/02/17 06:26:49;;;;;;;;;;;;;;;;;;5046627;28;19968;-60
2022/02/17 06:29:15;;;;;;;;;;;;;;;;;;5046845;28;21691;-57
2022/02/17 06:31:40;;;;;;;;;;;;;;;;;;5046117;28;19927;-60
2022/02/17 06:34:06;;;;;;;;;;;;;;;;;;5046829;28;20449;-59
2022/02/17 06:36:31;;;;;;;;;;;;;;;;;;5046359;28;19924;-60
2022/02/17 06:38:57;;;;;;;;;;;;;;;;;;5050102;28;19920;-59
2022/02/17 06:41:22;;;;;;;;;;;;;;;;;;5048929;28;19925;-59
2022/02/17 06:43:48;;;;;;;;;;;;;;;;;;5047894;28;20378;-60
2022/02/17 06:46:13;;;;;;;;;;;;;;;;;;5048679;28;20054;-61
2022/02/17 06:48:39;;;;;;;;;;;;;;;;;;5037818;28;20011;-60
2022/02/17 06:51:05;;;;;;;;;;;;;;;;;;5046073;28;19932;-60
2022/02/17 06:53:30;;;;;;;;;;;;;;;;;;5045108;28;19943;-60
2022/02/17 06:55:56;;;;;;;;;;;;;;;;;;5047422;28;19995;-59
2022/02/17 06:58:21;;;;;;;;;;;;;;;;;;5046703;28;19920;-59
2022/02/17 07:00:47;;;;;;;;;;;;;;;;;;5045388;28;19925;-59
2022/02/17 07:03:12;;;;;;;;;;;;;;;;;;5046425;28;19937;-60
2022/02/17 07:05:38;;;;;;;;;;;;;;;;;;5046369;28;19994;-60
2022/02/17 07:08:03;;;;;;;;;;;;;;;;;;5047387;28;19944;-61
2022/02/17 07:13:13;;;;;;;;;;;;;;;;;;5046800;28;19971;-60
2022/02/17 07:15:38;;;;;;;;;;;;;;;;;;5046330;28;19924;-58
2022/02/17 07:18:04;;;;;;;;;;;;;;;;;;5046644;28;19986;-59
2022/02/17 07:20:30;;;;;;;;;;;;;;;;;;5045688;28;19931;-59
2022/02/17 07:22:56;;;;;;;;;;;;;;;;;;5046508;28;19920;-57
2022/02/17 07:25:21;;;;;;;;;;;;;;;;;;5046225;28;19940;-58
2022/02/17 07:27:47;;;;;;;;;;;;;;;;;;5047323;28;19924;-59
2022/02/17 07:30:12;;;;;;;;;;;;;;;;;;5046270;28;19957;-61
2022/02/17 07:32:38;;;;;;;;;;;;;;;;;;5026971;28;19996;-58
2022/02/17 07:35:03;;;;;;;;;;;;;;;;;;5027949;28;19991;-60
2022/02/17 07:37:29;;;;;;;;;;;;;;;;;;5046532;28;19931;-59
2022/02/17 07:39:54;;;;;;;;;;;;;;;;;;5047443;28;19966;-59
2022/02/17 07:42:19;;;;;;;;;;;;;;;;;;5030765;28;20685;-60
2022/02/17 07:44:45;;;;;;;;;;;;;;;;;;5053263;28;19920;-60
2022/02/17 07:47:10;;;;;;;;;;;;;;;;;;5052404;28;19924;-60
2022/02/17 07:49:36;;;;;;;;;;;;;;;;;;5045128;28;19936;-58
2022/02/17 07:52:01;;;;;;;;;;;;;;;;;;5044975;28;21696;-57
2022/02/17 07:54:27;;;;;;;;;;;;;;;;;;5046862;28;20433;-56
2022/02/17 07:56:52;;;;;;;;;;;;;;;;;;5046874;28;19928;-56
2022/02/17 07:59:18;;;;;;;;;;;;;;;;;;5045195;28;19925;-58
2022/02/17 08:01:43;;;;;;;;;;;;;;;;;;5044928;28;19999;-58
2022/02/17 08:04:08;;;;;;;;;;;;;;;;;;5044457;28;20359;-58
2022/02/17 08:06:34;;;;;;;;;;;;;;;;;;5045678;28;19974;-61
2022/02/17 08:08:59;;;;;;;;;;;;;;;;;;5045297;28;20003;-58
2022/02/17 08:11:25;;;;;;;;;;;;;;;;;;5045655;28;20043;-58
2022/02/17 08:13:50;;;;;;;;;;;;;;;;;;5045130;28;19963;-58
2022/02/17 08:16:16;;;;;;;;;;;;;;;;;;5046505;28;19931;-58
2022/02/17 08:18:41;;;;;;;;;;;;;;;;;;5044174;28;19924;-58
2022/02/17 08:21:08;;;;;;;;;;;;;;;;;;5045830;28;20212;-58
2022/02/17 08:23:36;;;;;;;;;;;;;;;;;;5042964;28;20010;-58
2022/02/17 08:26:01;;;;;;;;;;;;;;;;;;5045772;28;20023;-59
2022/02/17 08:28:26;;;;;;;;;;;;;;;;;;5044834;28;20007;-59
2022/02/17 08:30:52;;;;;;;;;;;;;;;;;;5027980;28;19960;-59
2022/02/17 08:33:18;;;;;;;;;;;;;;;;;;5043972;28;19967;-57
2022/02/17 08:35:43;;;;;;;;;;;;;;;;;;5046428;28;19932;-59
2022/02/17 08:38:09;;;;;;;;;;;;;;;;;;5044889;28;19921;-58
2022/02/17 08:40:35;;;;;;;;;;;;;;;;;;5044478;28;19924;-58
2022/02/17 08:43:09;;;;;;;;;;;;;;;;;;5049550;28;20023;-58
2022/02/17 08:45:35;;;;;;;;;;;;;;;;;;5047440;28;20012;-59
2022/02/17 08:48:01;;;;;;;;;;;;;;;;;;5050191;28;19920;-59
2022/02/17 08:50:26;;;;;;;;;;;;;;;;;;5047606;28;20050;-59
2022/02/17 08:52:52;;;;;;;;;;;;;;;;;;5049625;28;19927;-57
2022/02/17 08:55:17;;;;;;;;;;;;;;;;;;5048644;28;20313;-59
2022/02/17 08:57:47;;;;;;;;;;;;;;;;;;5048570;28;19920;-58
2022/02/17 09:00:12;;;;;;;;;;;;;;;;;;5049485;28;20309;-58
2022/02/17 09:02:38;;;;;;;;;;;;;;;;;;5048482;28;19939;-59
2022/02/17 09:05:03;;;;;;;;;;;;;;;;;;5049444;28;20392;-57
2022/02/17 09:07:29;;;;;;;;;;;;;;;;;;5048180;28;20659;-58
2022/02/17 09:09:54;;;;;;;;;;;;;;;;;;5049499;28;19935;-58
2022/02/17 09:12:19;;;;;;;;;;;;;;;;;;5047477;28;20094;-58
2022/02/17 09:14:45;;;;;;;;;;;;;;;;;;5047704;28;19925;-57
2022/02/17 09:17:10;;;;;;;;;;;;;;;;;;5049096;28;20856;-59
2022/02/17 09:19:37;;;;;;;;;;;;;;;;;;5048945;28;19946;-58
2022/02/17 09:22:03;;;;;;;;;;;;;;;;;;5046618;28;19933;-59
2022/02/17 09:24:29;;;;;;;;;;;;;;;;;;5047499;28;20444;-59
2022/02/17 09:26:54;;;;;;;;;;;;;;;;;;5048249;28;20284;-58
2022/02/17 09:29:19;;;;;;;;;;;;;;;;;;5047926;28;20003;-58
2022/02/17 09:31:45;;;;;;;;;;;;;;;;;;5047923;28;19999;-59
2022/02/17 09:34:12;;;;;;;;;;;;;;;;;;5049417;28;20087;-59
2022/02/17 09:36:37;;;;;;;;;;;;;;;;;;5048109;28;19982;-59
2022/02/17 09:39:03;;;;;;;;;;;;;;;;;;5049487;28;20691;-59
2022/02/17 09:41:28;;;;;;;;;;;;;;;;;;5045899;28;19930;-59
2022/02/17 09:43:55;;;;;;;;;;;;;;;;;;5049434;28;20298;-59
2022/02/17 09:46:23;;;;;;;;;;;;;;;;;;5048770;28;20377;-59
2022/02/17 09:48:50;;;;;;;;;;;;;;;;;;5049913;28;19928;-59
2022/02/17 09:51:16;;;;;;;;;;;;;;;;;;5047664;28;19925;-59
2022/02/17 09:53:41;;;;;;;;;;;;;;;;;;5048427;28;19924;-59
2022/02/17 09:56:07;;;;;;;;;;;;;;;;;;5048398;28;19921;-59
2022/02/17 09:58:32;;;;;;;;;;;;;;;;;;5047348;28;19924;-58
2022/02/17 10:00:58;;;;;;;;;;;;;;;;;;5048436;28;19928;-59
2022/02/17 10:03:24;;;;;;;;;;;;;;;;;;5047517;28;19925;-59
2022/02/17 10:05:50;;;;;;;;;;;;;;;;;;5048054;28;19931;-58
2022/02/17 10:08:15;;;;;;;;;;;;;;;;;;5048188;28;19932;-58
2022/02/17 10:10:41;;;;;;;;;;;;;;;;;;5045865;28;19929;-57
2022/02/17 10:13:07;;;;;;;;;;;;;;;;;;5046998;28;19925;-58
2022/02/17 10:15:32;;;;;;;;;;;;;;;;;;5045773;28;19921;-58
2022/02/17 10:17:58;;;;;;;;;;;;;;;;;;5047852;28;19924;-58
2022/02/17 10:20:23;;;;;;;;;;;;;;;;;;5045194;28;19974;-58
2022/02/17 10:22:49;;;;;;;;;;;;;;;;;;5048041;28;20413;-59
2022/02/17 10:25:14;;;;;;;;;;;;;;;;;;5046730;28;19929;-58
2022/02/17 10:27:40;;;;;;;;;;;;;;;;;;5047133;28;19989;-59
2022/02/17 10:30:13;;;;;;;;;;;;;;;;;;5048526;28;19939;-59
2022/02/17 10:32:38;;;;;;;;;;;;;;;;;;5046944;28;19924;-60
2022/02/17 10:35:04;;;;;;;;;;;;;;;;;;5047309;28;21709;-59
2022/02/17 10:37:29;;;;;;;;;;;;;;;;;;5047176;28;19982;-59
2022/02/17 10:39:54;;;;;;;;;;;;;;;;;;5046460;28;19928;-59
2022/02/17 10:42:20;;;;;;;;;;;;;;;;;;5046620;28;19935;-59
2022/02/17 10:44:45;;;;;;;;;;;;;;;;;;5046962;28;20368;-60
2022/02/17 10:47:11;;;;;;;;;;;;;;;;;;5047370;28;19994;-60
2022/02/17 10:49:37;;;;;;;;;;;;;;;;;;5045078;28;20306;-59
2022/02/17 10:52:03;;;;;;;;;;;;;;;;;;5046635;28;20015;-58
2022/02/17 10:54:28;;;;;;;;;;;;;;;;;;5048059;28;20270;-58
2022/02/17 10:56:54;;;;;;;;;;;;;;;;;;5047254;28;20277;-59
2022/02/17 11:02:03;;;;;;;;;;;;;;;;;;5046145;28;19931;-59
2022/02/17 11:04:28;;;;;;;;;;;;;;;;;;5045141;28;20360;-59
2022/02/17 11:06:54;;;;;;;;;;;;;;;;;;5048230;28;19936;-60
2022/02/17 11:09:19;;;;;;;;;;;;;;;;;;5047410;28;19920;-59
2022/02/17 11:11:45;;;;;;;;;;;;;;;;;;5047489;28;19927;-59
2022/02/17 11:14:10;;;;;;;;;;;;;;;;;;5031331;28;19924;-59
2022/02/17 11:16:35;;;;;;;;;;;;;;;;;;5050045;28;19966;-59
2022/02/17 11:19:01;;;;;;;;;;;;;;;;;;5049998;28;20003;-59
2022/02/17 11:21:26;;;;;;;;;;;;;;;;;;5045649;28;19927;-59
2022/02/17 11:23:52;;;;;;;;;;;;;;;;;;5045170;28;20011;-59
2022/02/17 11:26:18;;;;;;;;;;;;;;;;;;5046599;28;19924;-58
2022/02/17 11:28:43;;;;;;;;;;;;;;;;;;5027834;28;20454;-57
2022/02/17 11:31:10;;;;;;;;;;;;;;;;;;5045252;28;19928;-60
2022/02/17 11:33:37;;;;;;;;;;;;;;;;;;5045783;28;19921;-58
2022/02/17 11:36:03;;;;;;;;;;;;;;;;;;5046642;28;19931;-60
2022/02/17 11:38:29;;;;;;;;;;;;;;;;;;5045473;28;19924;-60
2022/02/17 11:40:54;;;;;;;;;;;;;;;;;;5046011;28;19940;-59
2022/02/17 11:43:20;;;;;;;;;;;;;;;;;;5045029;28;20815;-60
2022/02/17 11:45:46;;;;;;;;;;;;;;;;;;5046228;28;19981;-60
2022/02/17 11:48:12;;;;;;;;;;;;;;;;;;5045866;28;19936;-59
2022/02/17 11:50:38;;;;;;;;;;;;;;;;;;5046409;28;19980;-60
2022/02/17 11:53:03;;;;;;;;;;;;;;;;;;5046489;28;19921;-60
2022/02/17 11:55:29;;;;;;;;;;;;;;;;;;5046082;28;19924;-57
2022/02/17 11:57:54;;;;;;;;;;;;;;;;;;5046285;28;19932;-60
2022/02/17 12:00:20;;;;;;;;;;;;;;;;;;5046312;28;19974;-60
2022/02/17 12:02:45;;;;;;;;;;;;;;;;;;5045265;28;19936;-59
2022/02/17 12:05:11;;;;;;;;;;;;;;;;;;5046219;28;19920;-59
2022/02/17 12:07:36;;;;;;;;;;;;;;;;;;5046505;28;20365;-59
2022/02/17 12:10:02;;;;;;;;;;;;;;;;;;5048812;28;20036;-59
2022/02/17 12:12:27;;;;;;;;;;;;;;;;;;5030867;28;19929;-60
2022/02/17 12:14:53;;;;;;;;;;;;;;;;;;5047443;28;19932;-59
2022/02/17 12:17:18;;;;;;;;;;;;;;;;;;5045503;28;19931;-57
2022/02/17 12:19:46;;;;;;;;;;;;;;;;;;5045022;28;20595;-59
2022/02/17 12:22:12;;;;;;;;;;;;;;;;;;5045812;28;19921;-59
2022/02/17 12:24:39;;;;;;;;;;;;;;;;;;5045301;28;19991;-58
2022/02/17 12:27:05;;;;;;;;;;;;;;;;;;5045894;28;19947;-58
2022/02/17 12:29:32;;;;;;;;;;;;;;;;;;5046042;28;20460;-59
2022/02/17 12:31:58;;;;;;;;;;;;;;;;;;5046452;28;20065;-59
2022/02/17 12:34:23;;;;;;;;;;;;;;;;;;5028439;28;20035;-59
2022/02/17 12:36:49;;;;;;;;;;;;;;;;;;5047972;28;20297;-59
2022/02/17 12:39:14;;;;;;;;;;;;;;;;;;5046900;28;19928;-60
2022/02/17 12:41:40;;;;;;;;;;;;;;;;;;5044355;28;20539;-60
2022/02/17 12:44:08;;;;;;;;;;;;;;;;;;5046675;28;20500;-58
2022/02/17 12:46:34;;;;;;;;;;;;;;;;;;5047021;28;19927;-57
2022/02/17 12:48:59;;;;;;;;;;;;;;;;;;5047329;28;19924;-58
2022/02/17 12:51:25;;;;;;;;;;;;;;;;;;5046546;28;19971;-59
2022/02/17 12:53:52;;;;;;;;;;;;;;;;;;5047461;28;19975;-58
2022/02/17 12:56:17;;;;;;;;;;;;;;;;;;5046306;28;19921;-58
2022/02/17 12:58:42;;;;;;;;;;;;;;;;;;5045198;28;19921;-58
2022/02/17 13:01:08;;;;;;;;;;;;;;;;;;5046599;28;21687;-56
2022/02/17 13:03:34;;;;;;;;;;;;;;;;;;5043628;28;20020;-59
2022/02/17 13:06:18;;;;;;;;;;;;;;;;;;5046567;28;19959;-59
2022/02/17 13:08:43;;;;;;;;;;;;;;;;;;5044076;28;20342;-59
2022/02/17 13:11:09;;;;;;;;;;;;;;;;;;5044845;28;19955;-58
2022/02/17 13:13:34;;;;;;;;;;;;;;;;;;5042843;28;19956;-57
2022/02/17 13:15:59;;;;;;;;;;;;;;;;;;5044472;28;19920;-58
2022/02/17 13:18:25;;;;;;;;;;;;;;;;;;5043208;28;19948;-57
2022/02/17 13:20:50;;;;;;;;;;;;;;;;;;5046585;28;19921;-58
2022/02/17 13:23:16;;;;;;;;;;;;;;;;;;5044704;28;20596;-58
2022/02/17 13:25:42;;;;;;;;;;;;;;;;;;5043516;28;20388;-57
2022/02/17 13:28:07;;;;;;;;;;;;;;;;;;5045986;28;19925;-58
2022/02/17 13:30:33;;;;;;;;;;;;;;;;;;5047775;28;19963;-58
2022/02/17 13:33:01;;;;;;;;;;;;;;;;;;5048136;28;21756;-58
2022/02/17 13:35:27;;;;;;;;;;;;;;;;;;5047997;28;20366;-58
2022/02/17 13:37:53;;;;;;;;;;;;;;;;;;5048002;28;20004;-57
2022/02/17 13:40:19;;;;;;;;;;;;;;;;;;5045931;28;19962;-58
2022/02/17 13:42:44;;;;;;;;;;;;;;;;;;5046484;28;20032;-58
2022/02/17 13:45:09;;;;;;;;;;;;;;;;;;5047840;28;19917;-58
2022/02/17 13:47:36;;;;;;;;;;;;;;;;;;5046948;28;19931;-57
2022/02/17 13:50:05;;;;;;;;;;;;;;;;;;5047584;28;19935;-59
2022/02/17 13:52:30;;;;;;;;;;;;;;;;;;5046902;28;19929;-58
2022/02/17 13:54:56;;;;;;;;;;;;;;;;;;5030412;28;19928;-58
2022/02/17 13:57:21;;;;;;;;;;;;;;;;;;5046537;28;20403;-58
2022/02/17 13:59:47;;;;;;;;;;;;;;;;;;5047176;28;19924;-58
2022/02/17 14:02:12;;;;;;;;;;;;;;;;;;5048047;28;20396;-58
2022/02/17 14:04:38;;;;;;;;;;;;;;;;;;5046989;28;19924;-58
2022/02/17 14:07:05;;;;;;;;;;;;;;;;;;5047386;28;20318;-60
2022/02/17 14:09:30;;;;;;;;;;;;;;;;;;5028085;28;20404;-59
2022/02/17 14:11:56;;;;;;;;;;;;;;;;;;5047074;28;19923;-58
2022/02/17 14:14:23;;;;;;;;;;;;;;;;;;5046789;28;19986;-58
2022/02/17 14:16:49;;;;;;;;;;;;;;;;;;5047641;28;19932;-57
2022/02/17 14:19:14;;;;;;;;;;;;;;;;;;5048132;28;19969;-58
2022/02/17 14:21:40;;;;;;;;;;;;;;;;;;5045250;28;19966;-58
2022/02/17 14:24:06;;;;;;;;;;;;;;;;;;5047095;28;19921;-56
2022/02/17 14:26:31;;;;;;;;;;;;;;;;;;5046699;28;19968;-58
2022/02/17 14:28:56;;;;;;;;;;;;;;;;;;5046955;28;19975;-57
2022/02/17 14:31:22;;;;;;;;;;;;;;;;;;5045740;28;20144;-58
2022/02/17 14:33:47;;;;;;;;;;;;;;;;;;5046125;28;19923;-57
2022/02/17 14:36:13;;;;;;;;;;;;;;;;;;5046445;28;20060;-58
2022/02/17 14:38:41;;;;;;;;;;;;;;;;;;5046605;28;19920;-58
2022/02/17 14:41:06;;;;;;;;;;;;;;;;;;5047947;28;19921;-57
2022/02/17 14:43:32;;;;;;;;;;;;;;;;;;5047667;28;20676;-58
2022/02/17 14:45:57;;;;;;;;;;;;;;;;;;5047620;28;20267;-55
2022/02/17 14:48:23;;;;;;;;;;;;;;;;;;5046508;28;19927;-57
2022/02/17 14:50:48;;;;;;;;;;;;;;;;;;5047956;28;20535;-57
2022/02/17 14:53:14;;;;;;;;;;;;;;;;;;5048284;28;19964;-58
2022/02/17 14:55:39;;;;;;;;;;;;;;;;;;5047796;28;19951;-58
2022/02/17 14:58:05;;;;;;;;;;;;;;;;;;5048458;28;19948;-57
2022/02/17 15:00:30;;;;;;;;;;;;;;;;;;5046323;28;20577;-58
2022/02/17 15:02:55;;;;;;;;;;;;;;;;;;5047350;28;19943;-59
2022/02/17 15:05:21;;;;;;;;;;;;;;;;;;5037061;28;20444;-59
2022/02/17 15:07:46;;;;;;;;;;;;;;;;;;5063894;28;19929;-59
2022/02/17 15:10:14;;;;;;;;;;;;;;;;;;5049378;28;20015;-58
2022/02/17 15:12:40;;;;;;;;;;;;;;;;;;5048475;28;20706;-58
2022/02/17 15:15:05;;;;;;;;;;;;;;;;;;5051500;28;20752;-58
2022/02/17 15:17:31;;;;;;;;;;;;;;;;;;5047112;28;19932;-58
2022/02/17 15:20:20;;;;;;;;;;;;;;;;;;5051351;28;19960;-59
2022/02/17 15:22:45;;;;;;;;;;;;;;;;;;5048242;28;20423;-59
2022/02/17 15:25:11;;;;;;;;;;;;;;;;;;5050016;28;19929;-58
2022/02/17 15:27:36;;;;;;;;;;;;;;;;;;5048109;28;19925;-58
2022/02/17 15:30:05;;;;;;;;;;;;;;;;;;5050389;28;19967;-58
2022/02/17 15:32:30;;;;;;;;;;;;;;;;;;5044852;28;19920;-61
2022/02/17 15:34:56;;;;;;;;;;;;;;;;;;5046826;28;20334;-58
2022/02/17 15:37:22;;;;;;;;;;;;;;;;;;5044879;28;20343;-57
2022/02/17 15:39:49;;;;;;;;;;;;;;;;;;5045413;28;19932;-58
2022/02/17 15:42:14;;;;;;;;;;;;;;;;;;5045742;28;19991;-58
2022/02/17 15:44:40;;;;;;;;;;;;;;;;;;5045529;28;19921;-57
2022/02/17 15:47:05;;;;;;;;;;;;;;;;;;5046583;28;20445;-59
2022/02/17 15:49:31;;;;;;;;;;;;;;;;;;5044676;28;19941;-58
2022/02/17 15:51:56;;;;;;;;;;;;;;;;;;5044826;28;19993;-59
2022/02/17 15:54:22;;;;;;;;;;;;;;;;;;5045662;28;20369;-58
2022/02/17 15:56:47;;;;;;;;;;;;;;;;;;5045622;28;19924;-59
2022/02/17 15:59:12;;;;;;;;;;;;;;;;;;5047647;28;20357;-58
2022/02/17 16:01:39;;;;;;;;;;;;;;;;;;5045167;28;20617;-58
2022/02/17 16:04:04;;;;;;;;;;;;;;;;;;5046218;28;20019;-59
2022/02/17 16:06:30;;;;;;;;;;;;;;;;;;5044942;28;20051;-58
2022/02/17 16:08:56;;;;;;;;;;;;;;;;;;5043805;28;19947;-58
2022/02/17 16:11:21;;;;;;;;;;;;;;;;;;5043722;28;19932;-58
2022/02/17 16:13:47;;;;;;;;;;;;;;;;;;5043703;28;19925;-58
2022/02/17 16:16:12;;;;;;;;;;;;;;;;;;5045956;28;19924;-58
2022/02/17 16:18:43;;;;;;;;;;;;;;;;;;5043879;28;19956;-58
2022/02/17 16:21:09;;;;;;;;;;;;;;;;;;5044430;28;19921;-58
2022/02/17 16:23:34;;;;;;;;;;;;;;;;;;5044377;28;19974;-57
2022/02/17 16:26:00;;;;;;;;;;;;;;;;;;5045274;28;20314;-57
2022/02/17 16:28:25;;;;;;;;;;;;;;;;;;5044329;28;19924;-58
2022/02/17 16:30:51;;;;;;;;;;;;;;;;;;5045673;28;19929;-58
2022/02/17 16:33:17;;;;;;;;;;;;;;;;;;5042860;28;19924;-58
2022/02/17 16:35:42;;;;;;;;;;;;;;;;;;5044631;28;20401;-56
2022/02/17 16:38:07;;;;;;;;;;;;;;;;;;5044856;28;20720;-58
2022/02/17 16:40:33;;;;;;;;;;;;;;;;;;5044889;28;19920;-58
2022/02/17 16:42:58;;;;;;;;;;;;;;;;;;5044783;28;19925;-58
2022/02/17 16:45:24;;;;;;;;;;;;;;;;;;5044125;28;19925;-58
2022/02/17 16:47:50;;;;;;;;;;;;;;;;;;5044893;28;20431;-55
2022/02/17 16:50:15;;;;;;;;;;;;;;;;;;5045568;28;20019;-57